Time;durP1;ratioP1;P1;durP2;ratioP2;P2;SDS_P1;SDS_P2;PMS_P1;PMS_P2;Temp;Humidity;BMP_temperature;BMP_pressure;BME280_temperature;BME280_humidity;BME280_pressure;Samples;Min_cycle;Max_cycle;Signal;HPM_P1;HPM_P2
2022/11/25 00:00:11;;;;;;;12.77;3.17;;;10.70;74.80;;;;;;5033597;28;20029;-70
2022/11/25 00:02:43;;;;;;;11.13;2.72;;;10.80;74.90;;;;;;5035260;28;20038;-70
2022/11/25 00:05:08;;;;;;;9.48;2.58;;;10.80;74.90;;;;;;5035163;28;20064;-71
2022/11/25 00:07:35;;;;;;;10.63;2.80;;;10.70;74.90;;;;;;5034029;28;20049;-70
2022/11/25 00:10:01;;;;;;;10.73;3.10;;;10.70;75.10;;;;;;5035237;28;20029;-70
2022/11/25 00:12:27;;;;;;;11.10;2.83;;;10.70;75.30;;;;;;5033888;28;20144;-70
2022/11/25 00:14:52;;;;;;;9.30;2.88;;;10.70;75.60;;;;;;5034277;28;20037;-70
2022/11/25 00:17:18;;;;;;;12.32;3.28;;;10.70;75.80;;;;;;5045702;28;20033;-69
2022/11/25 00:19:43;;;;;;;9.57;2.80;;;10.70;76.00;;;;;;5018549;28;20041;-70
2022/11/25 00:22:09;;;;;;;9.90;2.72;;;10.60;76.00;;;;;;5034800;28;20092;-70
2022/11/25 00:24:34;;;;;;;11.10;2.70;;;10.70;76.20;;;;;;5033503;28;20505;-69
2022/11/25 00:27:03;;;;;;;13.25;2.78;;;10.60;76.20;;;;;;5034666;28;20128;-70
2022/11/25 00:29:29;;;;;;;12.65;3.70;;;10.60;76.40;;;;;;5033037;28;20029;-70
2022/11/25 00:31:55;;;;;;;12.52;3.22;;;10.60;76.50;;;;;;5034817;28;20102;-69
2022/11/25 00:34:20;;;;;;;12.07;3.15;;;10.60;76.60;;;;;;5033151;28;20458;-69
2022/11/25 00:36:46;;;;;;;9.98;2.85;;;10.60;76.70;;;;;;5033849;28;20098;-69
2022/11/25 00:39:14;;;;;;;9.75;3.03;;;10.60;76.90;;;;;;5044544;28;20029;-69
2022/11/25 00:44:38;;;;;;;11.20;2.65;;;10.60;77.00;;;;;;5033670;28;20021;-69
2022/11/25 00:47:15;;;;;;;11.55;2.55;;;10.60;77.00;;;;;;5033311;28;20037;-69
2022/11/25 00:49:46;;;;;;;12.43;2.92;;;10.60;77.20;;;;;;5031593;28;20018;-69
2022/11/25 00:52:19;;;;;;;10.40;3.23;;;10.60;77.30;;;;;;5032820;28;20514;-69
2022/11/25 00:54:47;;;;;;;13.45;3.78;;;10.60;77.40;;;;;;5031829;28;20024;-69
2022/11/25 00:57:14;;;;;;;18.63;3.92;;;10.50;77.40;;;;;;5031971;28;20408;-69
2022/11/25 00:59:40;;;;;;;8.57;2.58;;;10.60;77.50;;;;;;5015476;28;20180;-69
2022/11/25 01:02:06;;;;;;;9.40;2.90;;;10.60;77.60;;;;;;5030951;28;20032;-69
2022/11/25 01:04:32;;;;;;;8.48;2.63;;;10.60;77.60;;;;;;5031782;28;20045;-69
2022/11/25 01:06:58;;;;;;;10.48;2.88;;;10.60;77.70;;;;;;5016219;28;20561;-69
2022/11/25 01:09:25;;;;;;;10.15;3.47;;;10.60;77.80;;;;;;5032461;28;20025;-70
2022/11/25 01:11:51;;;;;;;9.77;3.47;;;10.60;77.90;;;;;;5034122;28;20033;-69
2022/11/25 01:14:18;;;;;;;14.35;3.55;;;10.60;78.00;;;;;;5037073;28;20021;-69
2022/11/25 01:16:45;;;;;;;13.90;3.15;;;10.60;78.00;;;;;;5032334;28;20025;-69
2022/11/25 01:19:12;;;;;;;10.85;3.40;;;10.60;78.70;;;;;;5032176;28;20068;-69
2022/11/25 01:21:38;;;;;;;11.23;3.10;;;10.60;78.10;;;;;;5031128;28;20029;-69
2022/11/25 01:24:05;;;;;;;9.85;2.70;;;10.60;78.20;;;;;;5030335;28;20035;-70
2022/11/25 01:26:33;;;;;;;13.18;3.45;;;10.60;78.20;;;;;;5031497;28;20021;-69
2022/11/25 01:29:02;;;;;;;10.00;2.70;;;10.60;78.30;;;;;;5016986;28;20057;-69
2022/11/25 01:31:30;;;;;;;13.60;3.50;;;10.60;78.40;;;;;;5031917;28;20029;-69
2022/11/25 01:33:58;;;;;;;10.80;2.80;;;10.60;78.40;;;;;;5047900;28;20426;-69
2022/11/25 01:36:25;;;;;;;13.07;2.67;;;10.60;78.50;;;;;;5044872;28;20029;-69
2022/11/25 01:38:53;;;;;;;12.98;2.60;;;10.60;78.50;;;;;;5033767;28;20034;-69
2022/11/25 01:41:20;;;;;;;8.32;2.45;;;10.60;78.50;;;;;;5033740;28;20041;-69
2022/11/25 01:44:11;;;;;;;10.77;2.33;;;10.70;78.60;;;;;;5033041;28;20040;-70
2022/11/25 01:47:22;;;;;;;9.32;2.10;;;10.70;78.70;;;;;;5032465;28;20113;-69
2022/11/25 01:50:01;;;;;;;9.73;2.33;;;10.70;78.70;;;;;;5032144;28;20076;-69
2022/11/25 01:52:31;;;;;;;8.32;2.33;;;10.60;78.70;;;;;;5032667;28;20029;-69
2022/11/25 01:55:16;;;;;;;8.35;2.58;;;10.60;78.70;;;;;;5032838;28;20025;-69
2022/11/25 01:57:47;;;;;;;10.73;2.72;;;10.60;78.80;;;;;;5044518;28;20029;-69
2022/11/25 02:00:13;;;;;;;12.48;2.97;;;10.70;78.90;;;;;;5044198;28;20399;-70
2022/11/25 02:02:51;;;;;;;13.73;2.45;;;10.60;78.90;;;;;;5037102;28;20026;-69
2022/11/25 02:05:19;;;;;;;10.85;2.47;;;10.70;79.00;;;;;;5038811;28;20040;-69
2022/11/25 02:07:49;;;;;;;12.82;2.45;;;10.60;78.90;;;;;;5052021;28;20349;-70
2022/11/25 02:10:22;;;;;;;10.38;3.10;;;10.60;79.00;;;;;;5037378;28;20418;-69
2022/11/25 02:12:49;;;;;;;10.43;3.05;;;10.70;79.00;;;;;;5035670;28;20036;-70
2022/11/25 02:15:16;;;;;;;9.55;2.30;;;10.70;79.00;;;;;;5018874;28;20032;-69
2022/11/25 02:17:42;;;;;;;8.13;2.88;;;10.70;79.00;;;;;;5035903;28;20072;-70
2022/11/25 02:20:14;;;;;;;9.55;2.00;;;10.70;79.00;;;;;;5035795;28;20136;-70
2022/11/25 02:22:51;;;;;;;11.63;2.58;;;10.70;79.10;;;;;;5033938;28;20051;-70
2022/11/25 02:25:35;;;;;;;9.98;2.50;;;10.70;79.20;;;;;;5049838;28;20032;-70
2022/11/25 02:28:14;;;;;;;17.02;2.85;;;10.70;79.20;;;;;;5046685;28;20022;-70
2022/11/25 02:30:40;;;;;;;9.93;2.38;;;10.70;79.20;;;;;;5034691;28;20109;-70
2022/11/25 02:33:06;;;;;;;9.70;2.50;;;10.70;79.20;;;;;;5042916;28;20033;-70
2022/11/25 02:35:35;;;;;;;9.55;2.53;;;10.70;79.30;;;;;;5037975;28;20033;-69
2022/11/25 02:38:13;;;;;;;10.77;2.28;;;10.70;79.30;;;;;;5018370;28;20112;-69
2022/11/25 02:40:47;;;;;;;9.15;2.88;;;10.70;79.40;;;;;;5035743;28;20068;-69
2022/11/25 02:43:14;;;;;;;12.13;2.65;;;10.70;79.40;;;;;;5037746;28;20515;-69
2022/11/25 02:45:50;;;;;;;9.00;2.20;;;10.70;79.40;;;;;;5038930;28;20025;-69
2022/11/25 02:48:18;;;;;;;8.07;2.42;;;10.70;79.50;;;;;;5039387;28;20022;-69
2022/11/25 02:50:46;;;;;;;8.90;2.63;;;10.70;79.50;;;;;;5041067;28;20033;-69
2022/11/25 02:53:14;;;;;;;11.68;2.47;;;10.80;79.60;;;;;;5036275;28;20029;-69
2022/11/25 02:55:40;;;;;;;11.40;2.15;;;10.80;79.70;;;;;;5049783;28;20025;-69
2022/11/25 02:58:06;;;;;;;13.40;3.22;;;10.70;79.60;;;;;;5039235;28;20021;-70
2022/11/25 03:00:31;;;;;;;11.82;2.90;;;10.80;79.70;;;;;;5031620;28;20037;-70
2022/11/25 03:02:57;;;;;;;8.38;2.20;;;10.80;79.70;;;;;;5034214;28;20022;-70
2022/11/25 03:05:23;;;;;;;10.80;3.58;;;10.80;79.80;;;;;;5033662;28;20087;-69
2022/11/25 03:07:49;;;;;;;10.77;2.40;;;10.80;79.90;;;;;;5034724;28;20037;-69
2022/11/25 03:10:17;;;;;;;11.82;2.78;;;10.80;79.90;;;;;;5039875;28;20025;-69
2022/11/25 03:12:43;;;;;;;9.48;2.97;;;10.80;79.90;;;;;;5017285;28;20589;-69
2022/11/25 03:15:09;;;;;;;13.88;3.33;;;10.80;79.90;;;;;;5033880;28;20339;-69
2022/11/25 03:17:34;;;;;;;8.65;3.15;;;10.80;80.00;;;;;;5049753;28;20026;-70
2022/11/25 03:20:00;;;;;;;9.88;2.67;;;10.80;80.10;;;;;;5042327;28;20050;-70
2022/11/25 03:22:26;;;;;;;9.77;2.50;;;10.80;80.20;;;;;;5017902;28;20025;-70
2022/11/25 03:24:53;;;;;;;8.88;2.42;;;10.80;80.30;;;;;;5035562;28;20445;-70
2022/11/25 03:27:19;;;;;;;13.95;3.22;;;10.80;80.40;;;;;;5049673;28;20117;-70
2022/11/25 03:29:45;;;;;;;11.68;2.30;;;10.80;80.50;;;;;;5034117;28;20052;-70
2022/11/25 03:32:11;;;;;;;11.57;3.05;;;10.80;80.50;;;;;;5019701;28;20106;-70
2022/11/25 03:34:37;;;;;;;10.93;2.97;;;10.90;80.60;;;;;;5033041;28;20080;-70
2022/11/25 03:37:03;;;;;;;9.77;2.80;;;10.90;80.70;;;;;;5032536;28;20446;-70
2022/11/25 03:39:31;;;;;;;7.22;2.30;;;10.90;80.80;;;;;;5020293;28;20030;-70
2022/11/25 03:41:56;;;;;;;13.13;3.30;;;10.90;80.90;;;;;;5041598;28;20039;-70
2022/11/25 03:44:22;;;;;;;10.95;2.92;;;10.90;81.00;;;;;;5043518;28;20060;-70
2022/11/25 03:46:48;;;;;;;8.63;2.55;;;10.90;81.10;;;;;;5036346;28;20049;-70
2022/11/25 03:49:13;;;;;;;8.88;2.20;;;10.90;81.10;;;;;;5036874;28;20076;-70
2022/11/25 03:51:39;;;;;;;9.82;2.53;;;10.90;81.10;;;;;;5021709;28;20124;-70
2022/11/25 03:54:04;;;;;;;10.80;2.65;;;10.90;81.30;;;;;;5035752;28;20474;-70
2022/11/25 03:56:45;;;;;;;12.63;2.92;;;10.90;81.30;;;;;;5033960;28;20112;-70
2022/11/25 03:59:11;;;;;;;6.82;1.95;;;11.00;81.40;;;;;;5036572;28;20417;-70
2022/11/25 04:01:37;;;;;;;10.77;2.42;;;10.90;81.40;;;;;;5034276;28;20446;-69
2022/11/25 04:04:03;;;;;;;11.93;2.95;;;11.00;81.50;;;;;;5022535;28;20021;-70
2022/11/25 04:06:30;;;;;;;10.02;2.92;;;11.00;81.60;;;;;;5034007;28;20052;-70
2022/11/25 04:08:58;;;;;;;8.93;2.63;;;11.00;81.70;;;;;;5033321;28;20461;-70
2022/11/25 04:12:45;;;;;;;9.63;2.45;;;11.00;81.70;;;;;;5041447;28;20080;-70
2022/11/25 04:14:12;;;;;;;8.88;2.40;;;11.00;81.80;;;;;;5040636;28;20030;-70
2022/11/25 04:16:37;;;;;;;11.60;2.65;;;11.00;81.90;;;;;;5026784;28;20037;-70
2022/11/25 04:19:03;;;;;;;13.50;2.38;;;11.00;81.90;;;;;;5033431;28;20501;-70
2022/11/25 04:21:29;;;;;;;9.88;2.78;;;11.00;82.00;;;;;;5034467;28;20044;-70
2022/11/25 04:23:55;;;;;;;11.18;2.38;;;11.00;82.00;;;;;;5032097;28;20022;-70
2022/11/25 04:26:21;;;;;;;8.35;2.10;;;11.00;82.70;;;;;;5034108;28;20404;-69
2022/11/25 04:28:46;;;;;;;8.73;2.35;;;11.00;82.10;;;;;;5034704;28;20030;-70
2022/11/25 04:31:12;;;;;;;7.93;2.03;;;11.00;82.20;;;;;;5034622;28;20036;-70
2022/11/25 04:33:41;;;;;;;7.97;2.30;;;11.00;82.20;;;;;;5035197;28;20083;-70
2022/11/25 04:36:08;;;;;;;10.82;2.65;;;11.00;82.20;;;;;;5042170;28;20115;-69
2022/11/25 04:38:34;;;;;;;10.85;2.55;;;11.00;82.30;;;;;;5016869;28;20044;-70
2022/11/25 04:41:01;;;;;;;8.27;2.55;;;11.00;82.30;;;;;;5048598;28;20033;-70
2022/11/25 04:43:28;;;;;;;7.25;2.10;;;11.00;82.40;;;;;;5035138;28;20021;-70
2022/11/25 04:46:00;;;;;;;10.18;2.85;;;11.00;82.40;;;;;;5032273;28;20026;-70
2022/11/25 04:48:26;;;;;;;8.52;2.30;;;11.00;82.40;;;;;;5015495;28;20416;-70
2022/11/25 04:50:51;;;;;;;10.73;2.83;;;11.00;82.40;;;;;;5045828;28;20120;-70
2022/11/25 04:53:17;;;;;;;12.70;2.58;;;11.00;83.10;;;;;;5031668;28;20032;-71
2022/11/25 04:55:43;;;;;;;8.40;2.53;;;11.00;82.50;;;;;;5037343;28;20031;-70
2022/11/25 04:59:38;;;;;;;12.57;2.80;;;11.00;82.70;;;;;;5036180;28;20091;-69
2022/11/25 05:01:00;;;;;;;11.00;2.78;;;11.00;82.70;;;;;;5030539;28;20533;-69
2022/11/25 05:03:26;;;;;;;9.50;1.83;;;11.00;82.70;;;;;;5032312;28;20041;-70
2022/11/25 05:05:52;;;;;;;7.38;2.42;;;11.00;82.80;;;;;;5036057;28;20450;-70
2022/11/25 05:08:18;;;;;;;8.88;2.60;;;11.00;82.80;;;;;;5044026;28;20025;-70
2022/11/25 05:10:44;;;;;;;8.38;2.70;;;11.00;82.80;;;;;;5018468;28;20026;-70
2022/11/25 05:13:09;;;;;;;9.57;2.55;;;11.00;82.90;;;;;;5042598;28;20037;-70
2022/11/25 05:15:35;;;;;;;8.85;2.63;;;11.00;82.90;;;;;;5032919;28;20063;-70
2022/11/25 05:18:04;;;;;;;11.82;2.85;;;11.00;82.90;;;;;;5016931;28;20025;-70
2022/11/25 05:20:43;;;;;;;9.35;2.80;;;11.00;83.10;;;;;;5041516;28;20107;-69
2022/11/25 05:23:10;;;;;;;10.85;2.75;;;11.00;83.00;;;;;;5014736;28;20083;-69
2022/11/25 05:25:36;;;;;;;14.65;3.78;;;11.00;83.10;;;;;;5032327;28;20017;-69
2022/11/25 05:28:26;;;;;;;11.82;2.55;;;11.00;83.10;;;;;;5018849;28;20408;-69
2022/11/25 05:30:52;;;;;;;14.25;3.10;;;11.00;83.10;;;;;;5013766;28;20100;-69
2022/11/25 05:33:18;;;;;;;10.95;2.40;;;11.00;83.20;;;;;;5037727;28;20116;-70
2022/11/25 05:35:51;;;;;;;8.98;2.13;;;11.00;83.20;;;;;;5021011;28;20117;-70
2022/11/25 05:38:17;;;;;;;8.93;2.42;;;11.00;83.30;;;;;;5033472;28;20446;-69
2022/11/25 05:40:43;;;;;;;10.10;2.33;;;11.00;83.40;;;;;;5031039;28;20040;-70
2022/11/25 05:43:12;;;;;;;8.57;2.58;;;11.00;83.40;;;;;;5032461;28;20072;-70
2022/11/25 05:45:39;;;;;;;10.45;2.35;;;11.00;83.40;;;;;;5031874;28;20021;-70
2022/11/25 05:48:07;;;;;;;9.00;2.80;;;11.00;83.40;;;;;;5032995;28;20138;-69
2022/11/25 05:50:32;;;;;;;9.07;2.30;;;11.00;83.50;;;;;;5035413;28;20509;-70
2022/11/25 05:53:30;;;;;;;9.15;2.50;;;11.00;83.50;;;;;;5026747;28;20418;-69
2022/11/25 05:55:59;;;;;;;11.75;3.30;;;11.00;83.50;;;;;;5047887;28;20075;-70
2022/11/25 05:58:43;;;;;;;8.02;2.38;;;11.00;83.50;;;;;;5054194;28;20472;-70
2022/11/25 06:01:11;;;;;;;6.95;2.30;;;10.90;83.50;;;;;;5048174;28;20056;-69
2022/11/25 06:03:38;;;;;;;9.70;2.67;;;11.00;83.60;;;;;;5024757;28;20085;-69
2022/11/25 06:06:05;;;;;;;9.23;2.88;;;11.00;83.60;;;;;;5044087;28;20063;-69
2022/11/25 06:08:31;;;;;;;9.07;2.72;;;11.00;83.60;;;;;;5051393;28;20021;-69
2022/11/25 06:10:56;;;;;;;7.80;2.30;;;11.00;83.60;;;;;;5042934;28;20036;-69
2022/11/25 06:13:23;;;;;;;6.97;2.10;;;11.00;83.60;;;;;;5038136;28;20362;-70
2022/11/25 06:15:49;;;;;;;10.77;2.42;;;11.00;84.30;;;;;;5044997;28;20405;-69
2022/11/25 06:18:17;;;;;;;10.00;2.22;;;11.00;83.60;;;;;;5028677;28;20104;-69
2022/11/25 06:20:44;;;;;;;9.98;2.35;;;10.90;83.50;;;;;;5043839;28;20680;-69
2022/11/25 06:23:09;;;;;;;7.93;2.13;;;11.00;83.50;;;;;;5045657;28;20187;-69
2022/11/25 06:25:36;;;;;;;7.85;2.17;;;11.00;83.50;;;;;;5035064;28;20022;-68
2022/11/25 06:28:02;;;;;;;10.10;2.08;;;11.00;83.50;;;;;;5034104;28;20117;-69
2022/11/25 06:30:29;;;;;;;6.07;2.22;;;11.00;83.50;;;;;;5030457;28;20365;-69
2022/11/25 06:33:13;;;;;;;8.57;2.00;;;11.00;83.50;;;;;;5041959;28;20527;-70
2022/11/25 06:35:41;;;;;;;6.53;1.80;;;11.00;83.50;;;;;;5048490;28;20021;-69
2022/11/25 06:38:08;;;;;;;7.65;1.75;;;11.00;83.50;;;;;;5031784;28;20052;-72
2022/11/25 06:40:34;;;;;;;7.43;1.90;;;11.00;83.50;;;;;;5042887;28;20488;-70
2022/11/25 06:42:59;;;;;;;6.10;1.88;;;11.00;83.40;;;;;;5035989;28;20021;-70
2022/11/25 06:45:25;;;;;;;5.88;1.83;;;11.00;83.50;;;;;;5043665;28;20036;-70
2022/11/25 06:47:50;;;;;;;7.10;2.03;;;11.00;83.50;;;;;;5056222;28;20029;-71
2022/11/25 06:50:16;;;;;;;5.30;1.73;;;11.00;83.50;;;;;;5039925;28;20029;-70
2022/11/25 06:52:42;;;;;;;7.68;1.77;;;10.90;83.40;;;;;;5049137;28;20017;-70
2022/11/25 06:55:07;;;;;;;6.55;1.98;;;10.90;83.40;;;;;;5039697;28;20037;-70
2022/11/25 06:57:33;;;;;;;9.80;2.55;;;10.90;83.30;;;;;;5048678;28;20025;-70
2022/11/25 06:59:59;;;;;;;10.43;2.08;;;10.90;83.30;;;;;;5048029;28;20400;-69
2022/11/25 07:02:24;;;;;;;7.63;1.80;;;10.90;83.30;;;;;;5053044;28;20045;-67
2022/11/25 07:04:50;;;;;;;8.43;2.42;;;10.90;83.30;;;;;;5043794;28;20025;-67
2022/11/25 07:07:16;;;;;;;6.57;2.30;;;10.90;83.30;;;;;;5045888;28;20084;-67
2022/11/25 07:09:41;;;;;;;4.43;1.85;;;10.80;83.20;;;;;;5027292;28;20025;-67
2022/11/25 07:12:07;;;;;;;6.18;2.08;;;10.80;83.20;;;;;;5055953;28;20354;-67
2022/11/25 07:14:33;;;;;;;8.30;2.20;;;10.80;83.20;;;;;;5039306;28;20039;-68
2022/11/25 07:16:58;;;;;;;6.75;1.95;;;10.80;83.20;;;;;;5045657;28;20053;-67
2022/11/25 07:19:24;;;;;;;8.65;2.63;;;10.80;83.30;;;;;;5039278;28;20098;-68
2022/11/25 07:21:50;;;;;;;7.07;2.22;;;10.70;83.20;;;;;;5038746;28;20030;-67
2022/11/25 07:24:16;;;;;;;7.07;2.28;;;10.70;83.20;;;;;;5034973;28;20041;-67
2022/11/25 07:26:43;;;;;;;5.63;1.77;;;10.70;83.20;;;;;;5036525;28;20029;-67
2022/11/25 07:29:13;;;;;;;7.57;2.33;;;10.70;83.30;;;;;;5036815;28;20098;-67
2022/11/25 07:31:44;;;;;;;9.73;2.38;;;10.70;83.30;;;;;;5037163;28;20112;-67
2022/11/25 07:34:16;;;;;;;5.33;1.80;;;10.60;83.20;;;;;;5044603;28;20255;-67
2022/11/25 07:36:42;;;;;;;7.72;2.63;;;10.60;83.80;;;;;;5050021;28;20375;-66
2022/11/25 07:39:12;;;;;;;6.03;2.10;;;10.60;83.20;;;;;;5052710;28;20044;-67
2022/11/25 07:41:38;;;;;;;5.15;1.75;;;10.60;83.20;;;;;;5050762;28;20043;-66
2022/11/25 07:44:05;;;;;;;8.25;2.00;;;10.60;83.10;;;;;;5036523;28;20116;-69
2022/11/25 07:46:44;;;;;;;6.95;2.38;;;10.60;83.10;;;;;;5036461;28;20427;-65
2022/11/25 07:49:16;;;;;;;6.68;2.15;;;10.60;83.10;;;;;;5036456;28;20034;-64
2022/11/25 07:51:46;;;;;;;7.25;1.80;;;10.60;83.00;;;;;;5036424;28;20091;-71
2022/11/25 07:54:12;;;;;;;6.78;1.98;;;10.60;83.00;;;;;;5034827;28;20033;-64
2022/11/25 07:56:41;;;;;;;6.30;1.80;;;10.60;83.00;;;;;;5036062;28;20068;-66
2022/11/25 07:59:11;;;;;;;6.80;2.50;;;10.60;83.00;;;;;;5034343;28;20095;-67
2022/11/25 08:01:36;;;;;;;8.85;2.78;;;10.60;82.90;;;;;;5035073;28;20430;-65
2022/11/25 08:04:02;;;;;;;8.48;2.05;;;10.60;82.90;;;;;;5034884;28;20035;-64
2022/11/25 08:06:28;;;;;;;7.57;2.42;;;10.60;82.80;;;;;;5034466;28;20354;-64
2022/11/25 08:08:56;;;;;;;8.43;2.60;;;10.60;82.80;;;;;;5034584;28;20040;-65
2022/11/25 08:11:24;;;;;;;6.45;2.15;;;10.70;82.80;;;;;;5030630;28;20095;-64
2022/11/25 08:13:50;;;;;;;9.75;2.78;;;10.70;82.80;;;;;;5034960;28;20040;-65
2022/11/25 08:16:18;;;;;;;9.02;2.20;;;10.80;82.70;;;;;;5035295;28;20049;-64
2022/11/25 08:18:44;;;;;;;6.63;2.50;;;10.80;82.50;;;;;;5029356;28;20438;-66
2022/11/25 08:21:12;;;;;;;7.85;2.47;;;10.80;82.40;;;;;;5037025;28;20461;-65
2022/11/25 08:23:40;;;;;;;7.32;2.35;;;10.90;82.30;;;;;;5035445;28;20494;-65
2022/11/25 08:26:11;;;;;;;10.25;2.60;;;10.90;82.20;;;;;;5034512;28;20029;-67
2022/11/25 08:28:38;;;;;;;6.22;2.30;;;10.90;82.20;;;;;;5035290;28;20108;-66
2022/11/25 08:31:16;;;;;;;10.57;2.63;;;10.90;82.20;;;;;;5034019;28;20056;-67
2022/11/25 08:33:43;;;;;;;6.95;2.15;;;11.00;82.20;;;;;;5044511;28;20025;-68
2022/11/25 08:36:09;;;;;;;31.98;16.83;;;11.00;82.10;;;;;;5035402;28;20350;-68
2022/11/25 08:38:35;;;;;;;55.33;30.52;;;11.10;82.00;;;;;;5045760;28;20056;-67
2022/11/25 08:41:01;;;;;;;50.38;37.72;;;11.20;81.80;;;;;;5055704;28;20032;-68
2022/11/25 08:43:27;;;;;;;39.28;25.13;;;11.30;81.70;;;;;;5043899;28;20057;-68
2022/11/25 08:45:53;;;;;;;22.85;13.55;;;11.40;81.50;;;;;;5043023;28;20073;-67
2022/11/25 08:48:20;;;;;;;35.80;22.25;;;11.40;81.30;;;;;;5037754;28;20037;-65
2022/11/25 08:50:49;;;;;;;40.80;28.30;;;11.50;81.20;;;;;;5051616;28;20025;-66
2022/11/25 08:53:15;;;;;;;28.35;17.92;;;11.50;81.10;;;;;;5049714;28;20366;-66
2022/11/25 08:55:41;;;;;;;16.42;9.32;;;11.50;81.00;;;;;;5053909;28;20021;-66
2022/11/25 08:58:09;;;;;;;16.55;6.53;;;11.60;81.00;;;;;;5055345;28;20564;-69
2022/11/25 09:00:43;;;;;;;9.35;4.28;;;11.60;80.90;;;;;;5055219;28;20033;-66
2022/11/25 09:03:09;;;;;;;8.95;3.47;;;11.60;80.80;;;;;;5055247;28;20033;-66
2022/11/25 09:05:39;;;;;;;9.27;2.90;;;11.70;80.80;;;;;;5042836;28;20030;-65
2022/11/25 09:08:06;;;;;;;11.38;3.35;;;11.80;80.70;;;;;;5055077;28;20460;-65
2022/11/25 09:10:33;;;;;;;7.53;2.70;;;11.80;80.60;;;;;;5053877;28;20036;-66
2022/11/25 09:12:59;;;;;;;8.68;3.35;;;11.90;80.50;;;;;;5055227;28;20035;-66
2022/11/25 09:15:25;;;;;;;8.30;2.55;;;11.90;80.30;;;;;;5055374;28;20044;-65
2022/11/25 09:17:59;;;;;;;7.47;2.22;;;11.90;80.20;;;;;;5049474;28;20128;-66
2022/11/25 09:20:25;;;;;;;8.23;2.40;;;12.00;80.10;;;;;;5046787;28;20347;-66
2022/11/25 09:22:50;;;;;;;6.68;2.10;;;12.00;79.90;;;;;;5043542;28;20446;-65
2022/11/25 09:25:16;;;;;;;6.85;2.53;;;12.10;79.80;;;;;;5042506;28;20029;-66
2022/11/25 09:27:42;;;;;;;6.90;2.38;;;12.20;79.70;;;;;;5043287;28;20021;-67
2022/11/25 09:30:08;;;;;;;6.88;2.30;;;12.20;79.60;;;;;;5034371;28;20446;-66
2022/11/25 09:32:33;;;;;;;6.88;2.55;;;12.20;79.40;;;;;;5034567;28;20048;-66
2022/11/25 09:34:59;;;;;;;7.47;2.50;;;12.20;79.30;;;;;;5031130;28;20025;-66
2022/11/25 09:37:25;;;;;;;6.35;2.30;;;12.20;79.30;;;;;;5030389;28;20014;-69
2022/11/25 09:39:54;;;;;;;9.75;2.85;;;12.20;79.30;;;;;;5031638;28;20332;-67
2022/11/25 09:48:53;;;;;;;7.10;2.40;;;12.20;79.30;;;;;;5030037;28;20113;-66
2022/11/25 09:51:29;;;;;;;5.40;2.22;;;12.30;79.30;;;;;;5031841;28;20387;-66
2022/11/25 09:54:08;;;;;;;11.70;2.53;;;12.30;79.00;;;;;;5032192;28;20068;-66
2022/11/25 09:56:40;;;;;;;8.32;2.42;;;12.50;78.80;;;;;;5030615;28;20040;-66
2022/11/25 09:59:16;;;;;;;6.22;2.17;;;12.60;78.50;;;;;;5034185;28;20361;-66
2022/11/25 10:01:54;;;;;;;8.52;2.50;;;12.80;78.10;;;;;;5033051;28;20033;-66
2022/11/25 10:04:29;;;;;;;6.75;2.22;;;13.00;77.70;;;;;;5023446;28;20113;-67
2022/11/25 10:07:00;;;;;;;10.15;3.00;;;13.10;77.40;;;;;;5031682;28;20155;-67
2022/11/25 10:09:32;;;;;;;9.50;3.28;;;13.30;77.10;;;;;;5049175;28;20034;-66
2022/11/25 10:12:23;;;;;;;7.97;2.97;;;13.40;76.80;;;;;;5043804;28;20477;-66
2022/11/25 10:14:52;;;;;;;7.75;2.40;;;13.50;76.40;;;;;;5033377;28;20032;-66
2022/11/25 10:17:38;;;;;;;7.28;3.00;;;13.60;76.20;;;;;;5033481;28;20117;-66
2022/11/25 10:20:13;;;;;;;10.07;3.20;;;13.70;76.50;;;;;;5033162;28;20380;-66
2022/11/25 10:23:12;;;;;;;7.90;2.42;;;13.80;75.70;;;;;;5033883;28;20032;-67
2022/11/25 10:25:44;;;;;;;7.72;2.67;;;13.80;75.50;;;;;;5036290;28;20045;-66
2022/11/25 10:28:20;;;;;;;9.65;3.17;;;13.90;75.30;;;;;;5036986;28;20037;-66
2022/11/25 10:30:58;;;;;;;8.35;2.90;;;13.90;75.00;;;;;;5037518;28;20025;-66
2022/11/25 10:33:30;;;;;;;9.65;2.85;;;14.00;74.90;;;;;;5054918;28;20365;-66
2022/11/25 10:36:02;;;;;;;;;;;14.00;74.60;;;;;;5052344;28;20442;-66
2022/11/25 10:38:44;;;;;;;10.77;3.75;;;14.10;74.70;;;;;;5054193;28;19934;-66
2022/11/25 10:41:19;;;;;;;8.00;2.95;;;14.10;74.30;;;;;;5044717;28;20446;-66
2022/11/25 10:43:46;;;;;;;11.90;3.30;;;14.10;74.20;;;;;;5056257;28;20040;-65
2022/11/25 10:46:21;;;;;;;8.90;3.20;;;14.10;74.80;;;;;;5054105;28;20044;-65
2022/11/25 10:49:12;;;;;;;8.80;3.25;;;14.20;74.10;;;;;;5053868;28;20352;-66
2022/11/25 10:51:49;;;;;;;9.25;2.97;;;14.20;74.00;;;;;;5037519;28;20029;-66
2022/11/25 10:54:18;;;;;;;11.13;3.13;;;14.30;73.90;;;;;;5031299;28;20081;-66
2022/11/25 10:56:58;;;;;;;10.15;3.25;;;14.30;73.90;;;;;;5046577;28;20330;-66
2022/11/25 10:59:30;;;;;;;7.57;2.78;;;14.30;73.60;;;;;;5037638;28;20028;-66
2022/11/25 11:02:25;;;;;;;8.32;3.25;;;14.30;73.50;;;;;;5042731;28;20125;-66
2022/11/25 11:05:15;;;;;;;8.52;3.20;;;14.30;73.30;;;;;;5032885;28;20049;-67
2022/11/25 11:07:45;;;;;;;10.00;3.10;;;14.20;73.30;;;;;;5049124;28;20037;-67
2022/11/25 11:10:20;;;;;;;8.80;3.40;;;14.20;73.40;;;;;;5056944;28;20029;-66
2022/11/25 11:13:05;;;;;;;7.60;2.90;;;14.20;73.40;;;;;;5055731;28;20020;-66
2022/11/25 11:15:40;;;;;;;10.77;3.53;;;14.10;73.40;;;;;;5035010;28;20037;-66
2022/11/25 11:18:36;;;;;;;11.10;2.92;;;14.00;73.40;;;;;;5031617;28;20036;-66
2022/11/25 11:21:04;;;;;;;10.05;2.92;;;13.90;73.50;;;;;;5039836;28;20110;-67
2022/11/25 11:23:45;;;;;;;7.18;2.90;;;13.80;73.60;;;;;;5056572;28;20044;-67
2022/11/25 11:26:24;;;;;;;9.73;2.90;;;13.80;73.70;;;;;;5038668;28;20430;-67
2022/11/25 11:29:18;;;;;;;10.68;3.20;;;13.70;73.70;;;;;;5055766;28;20021;-67
2022/11/25 11:31:58;;;;;;;9.75;2.85;;;13.60;73.80;;;;;;5036676;28;20045;-67
2022/11/25 11:34:49;;;;;;;5.55;2.25;;;13.50;73.80;;;;;;5039186;28;20029;-67
2022/11/25 11:37:43;;;;;;;7.05;2.85;;;13.50;73.90;;;;;;5031481;28;20029;-67
2022/11/25 11:40:29;;;;;;;8.13;2.47;;;13.40;73.90;;;;;;5042850;28;20040;-68
2022/11/25 11:43:15;;;;;;;9.95;2.60;;;13.40;73.90;;;;;;5048733;28;20037;-67
2022/11/25 11:46:06;;;;;;;9.95;2.55;;;13.40;74.00;;;;;;5030158;28;20515;-68
2022/11/25 11:49:03;;;;;;;6.68;2.55;;;13.40;74.10;;;;;;5048258;28;20413;-67
2022/11/25 11:51:56;;;;;;;9.73;3.33;;;13.30;74.00;;;;;;5028679;28;20042;-67
2022/11/25 11:54:33;;;;;;;10.38;2.85;;;13.40;74.10;;;;;;5031716;28;20025;-67
2022/11/25 11:57:04;;;;;;;12.07;2.60;;;13.40;74.00;;;;;;5037641;28;20029;-67
2022/11/25 11:59:29;;;;;;;10.70;2.42;;;13.40;74.00;;;;;;5049697;28;20311;-67
2022/11/25 12:01:55;;;;;;;10.68;2.85;;;13.30;74.10;;;;;;5054849;28;20059;-67
2022/11/25 12:04:42;;;;;;;10.55;2.55;;;13.30;74.10;;;;;;5056205;28;20163;-68
2022/11/25 12:07:34;;;;;;;9.93;2.63;;;13.30;74.20;;;;;;5055118;28;20033;-68
2022/11/25 12:10:26;;;;;;;8.25;2.67;;;13.30;74.30;;;;;;5052384;28;20048;-67
2022/11/25 12:13:03;;;;;;;11.73;3.15;;;13.30;74.30;;;;;;5053554;28;20033;-67
2022/11/25 12:15:42;;;;;;;9.40;2.38;;;13.20;74.40;;;;;;5055313;28;20339;-67
2022/11/25 12:18:34;;;;;;;11.00;3.25;;;13.20;74.50;;;;;;5055222;28;20041;-67
2022/11/25 12:21:04;;;;;;;11.48;3.38;;;13.20;74.60;;;;;;5032707;28;20036;-68
2022/11/25 12:24:02;;;;;;;10.65;2.97;;;13.20;74.60;;;;;;5039774;28;20461;-67
2022/11/25 12:26:55;;;;;;;7.53;2.80;;;13.20;74.60;;;;;;5054330;28;20108;-67
2022/11/25 12:29:44;;;;;;;10.05;2.78;;;13.20;74.60;;;;;;5043803;28;20025;-68
2022/11/25 12:32:33;;;;;;;11.05;2.95;;;13.20;74.60;;;;;;5037417;28;20029;-67
2022/11/25 12:35:17;;;;;;;8.27;2.47;;;13.20;74.60;;;;;;5032870;28;20041;-67
2022/11/25 12:37:49;;;;;;;7.68;2.40;;;13.20;74.60;;;;;;5037798;28;21171;-67
2022/11/25 12:41:07;;;;;;;13.43;2.53;;;13.10;74.70;;;;;;5041169;28;20025;-68
2022/11/25 12:43:45;;;;;;;8.65;2.17;;;13.10;74.70;;;;;;4952471;28;20041;-67
2022/11/25 12:46:23;;;;;;;7.78;2.42;;;13.10;74.90;;;;;;4969009;28;20051;-68
2022/11/25 12:48:50;;;;;;;10.77;3.10;;;13.10;74.90;;;;;;4971075;28;20053;-68
2022/11/25 12:51:40;;;;;;;8.23;2.53;;;13.10;75.00;;;;;;4953216;28;20077;-68
2022/11/25 12:54:33;;;;;;;8.98;2.40;;;13.10;75.00;;;;;;4956337;28;20377;-68
2022/11/25 12:57:14;;;;;;;8.13;2.90;;;13.10;74.90;;;;;;4968778;28;20045;-67
2022/11/25 13:00:04;;;;;;;8.52;2.30;;;13.10;74.80;;;;;;4970969;28;20367;-68
2022/11/25 13:02:54;;;;;;;10.13;2.55;;;13.10;74.80;;;;;;4972995;28;20030;-68
2022/11/25 13:05:40;;;;;;;8.70;2.38;;;13.10;74.70;;;;;;4974912;28;20045;-68
2022/11/25 13:08:47;;;;;;;8.52;2.60;;;13.10;74.70;;;;;;4964714;28;20096;-68
2022/11/25 13:11:17;;;;;;;10.13;2.78;;;13.10;74.70;;;;;;4969715;28;20080;-68
2022/11/25 13:13:55;;;;;;;9.18;2.70;;;13.10;74.80;;;;;;4975105;28;20062;-68